Flight Track Log - Related Links

Times and Time Zones

All times are in EDT time to prevent confusion due to time zone crossing. See the UAL583 flight status page for this flight to view local times or setup timezone preferences in your user account.

Time Position Orientation Groundspeed Altitude Reporting Facility
EDT Latitude Longitude Course Direction KTS MPH feet Rate Location/Type
Tue 06:26:38 AM 39.8833 -75.2167 311° West 145 167 800  Level Philadelphia TRACON
Tue 06:27:44 AM 39.9000 -75.1500 72° East 207 238 2,700 2,333 Climbing Philadelphia TRACON
Tue 06:28:44 AM 39.9333 -75.0833 57° Northeast 244 281 5,700 2,900 Climbing Philadelphia TRACON
Tue 06:29:00 AM 40.1368 -75.4867 323° Northwest  Level FlightAware
Tue 06:29:44 AM 39.9833 -75.1167 333° Northwest 293 337 8,500  Level Philadelphia TRACON
Tue 06:30:00 AM 40.2266 -75.5648 311° West  Level FlightAware
Tue 06:30:38 AM 40.0333 -75.2000 308° West 300 345 9,700  Level Philadelphia TRACON
Tue 06:31:00 AM 40.2998 -75.6747 311° West  Level FlightAware
Tue 06:32:19 AM 40.1136 -75.3661 302° West 388 447 10,600  Level New Center
Tue 06:33:19 AM 40.1797 -75.4844 306° West 375 432 13,500 2,769 Climbing New Center
Tue 06:34:16 AM 40.2442 -75.5950 307° West 375 432 16,000 1,780 Climbing New Center
Tue 06:35:17 AM 40.3092 -75.6894 312° West 386 444 17,000 1,300 Climbing New Center
Tue 06:36:16 AM 40.3797 -75.7953 311° West 391 450 18,600 1,000 Climbing New Center
Tue 06:37:17 AM 40.4414 -75.9089 306° West 391 450 19,000 787 Climbing New Center
Tue 06:38:18 AM 40.4681 -76.0608 283° West 382 440 20,200 1,525 Climbing New Center
Tue 06:39:19 AM 40.4889 -76.2017 281° West 392 451 22,100 1,815 Climbing New Center
Tue 06:40:17 AM 40.5108 -76.3536 281° West 406 467 23,800 1,563 Climbing New Center
Tue 06:41:18 AM 40.5369 -76.5058 283° West 420 483 25,200 1,438 Climbing New Center
Tue 06:42:18 AM 40.5583 -76.6661 280° West 436 502 26,700 1,513 Climbing New Center
Tue 06:43:17 AM 40.5731 -76.8286 277° West 441 507 28,200 1,475 Climbing New Center
Tue 06:44:16 AM 40.5875 -76.9911 277° West 451 519 29,600 1,300 Climbing New Center
Tue 06:45:17 AM 40.6011 -77.1619 276° West 462 532 30,800 1,240 Climbing New Center
Tue 06:46:17 AM 40.6192 -77.3306 278° West 468 539 32,100 1,289 Climbing New Center
Tue 06:47:18 AM 40.6328 -77.4958 276° West 468 539 33,400 1,207 Climbing New Center
Tue 06:49:21 AM 40.6594 -77.8322 276° West 471 542 35,800 852 Climbing Cleveland Center
Tue 06:50:21 AM 40.6819 -77.9983 280° West 466 536 36,000 100 Climbing Cleveland Center
Tue 06:51:21 AM 40.7067 -78.1672 281° West 466 536 36,000  Level Cleveland Center
Tue 06:52:21 AM 40.7311 -78.3472 280° West 466 536 36,000  Level Cleveland Center
Tue 06:53:21 AM 40.7531 -78.5164 280° West 466 536 36,000  Level Cleveland Center
Tue 06:54:21 AM 40.7747 -78.6858 280° West 466 536 36,000  Level Cleveland Center
Tue 06:55:21 AM 40.7983 -78.8525 281° West 466 536 36,000  Level Cleveland Center
Tue 06:56:21 AM 40.8236 -79.0192 281° West 466 536 36,000  Level Cleveland Center
Tue 06:57:21 AM 40.8444 -79.1861 279° West 466 536 36,000  Level Cleveland Center
Tue 06:58:21 AM 40.8653 -79.3531 279° West 466 536 36,000  Level Cleveland Center
Tue 06:59:21 AM 40.8878 -79.5231 280° West 466 536 36,000  Level Cleveland Center
Tue 07:00:21 AM 40.9081 -79.6903 279° West 466 536 36,000  Level Cleveland Center
Tue 07:01:21 AM 40.9278 -79.8575 279° West 466 536 36,000  Level Cleveland Center
Tue 07:02:21 AM 40.9497 -80.0278 280° West 466 536 36,000  Level Cleveland Center
Tue 07:03:21 AM 40.9692 -80.1953 279° West 466 536 36,000  Level Cleveland Center
Tue 07:04:21 AM 40.9906 -80.3658 279° West 466 536 36,000  Level Cleveland Center
Tue 07:05:21 AM 41.0114 -80.5364 279° West 466 536 36,000  Level Cleveland Center
Tue 07:06:21 AM 41.0303 -80.7042 279° West 466 536 36,000  Level Cleveland Center
Tue 07:07:21 AM 41.0486 -80.8750 278° West 466 536 36,000  Level Cleveland Center
Tue 07:08:21 AM 41.0606 -81.0486 275° West 471 542 36,000  Level Cleveland Center
Tue 07:09:21 AM 41.0661 -81.2028 273° West 476 548 36,000  Level Cleveland Center
Tue 07:10:21 AM 41.0794 -81.3958 275° West 476 548 36,000  Level Cleveland Center
Tue 07:11:21 AM 41.0886 -81.5694 274° West 476 548 36,000  Level Cleveland Center
Tue 07:12:21 AM 41.0972 -81.7431 274° West 481 554 36,000  Level Cleveland Center
Tue 07:13:21 AM 41.1078 -81.9197 275° West 481 554 36,000  Level Cleveland Center
Tue 07:14:21 AM 41.1203 -82.0964 275° West 481 554 36,000  Level Cleveland Center
Tue 07:15:21 AM 41.1286 -82.2508 274° West 481 554 36,000  Level Cleveland Center
Tue 07:16:21 AM 41.1383 -82.4250 274° West 481 554 36,000  Level Cleveland Center
Tue 07:17:21 AM 41.1478 -82.6017 274° West 481 554 36,000  Level Cleveland Center
Tue 07:18:21 AM 41.1550 -82.7756 273° West 481 554 36,000  Level Cleveland Center
Tue 07:19:21 AM 41.1642 -82.9497 274° West 481 554 36,000  Level Cleveland Center
Tue 07:20:21 AM 41.1747 -83.1378 274° West 481 554 36,000  Level Cleveland Center
Tue 07:21:21 AM 41.1814 -83.2953 273° West 476 548 36,000  Level Cleveland Center
Tue 07:22:21 AM 41.1878 -83.4667 273° West 476 548 36,000  Level Cleveland Center
Tue 07:23:21 AM 41.1956 -83.6436 273° West 476 548 36,000  Level Cleveland Center
Tue 07:24:21 AM 41.2033 -83.8178 273° West 481 554 36,000 50 Level Cleveland Center
Tue 07:25:21 AM 41.2150 -83.9894 275° West 481 554 36,100  Climbing Cleveland Center
Tue 07:26:21 AM 41.2203 -84.1611 272° West 476 548 36,000 -57 Descending Cleveland Center
Tue 07:27:07 AM 41.2253 -84.2897 273° West 468 539 36,000 -944 Level Chicago Center
Tue 07:28:09 AM 41.2303 -84.4647 272° West 472 543 34,300 -976 Descending Chicago Center
Tue 07:29:10 AM 41.2353 -84.6453 272° West 487 560 34,000 -146 Descending Chicago Center
Tue 07:30:12 AM 41.2406 -84.8336 272° West 507 583 34,000  Level Chicago Center
Tue 07:31:13 AM 41.2481 -85.0575 273° West 505 581 34,000  Level Chicago Center
Tue 07:32:15 AM 41.2531 -85.2419 272° West 499 574 34,000 -293 Level Chicago Center
Tue 07:33:16 AM 41.2581 -85.4275 272° West 498 573 33,400 -1,707 Descending Chicago Center
Tue 07:34:18 AM 41.2622 -85.6108 272° West 494 568 30,500 -3,610 Descending Chicago Center
Tue 07:35:19 AM 41.2656 -85.7956 271° West 496 571 26,000 -2,683 Descending Chicago Center
Tue 07:36:21 AM 41.2897 -85.9700 281° West 470 541 25,000 -488 Descending Chicago Center
Tue 07:37:22 AM 41.3281 -86.1322 288° West 458 527 25,000 -244 Level Chicago Center
Tue 07:38:24 AM 41.3647 -86.2947 287° West 459 528 24,500 -1,366 Descending Chicago Center
Tue 07:39:25 AM 41.4019 -86.4544 287° West 454 522 22,200 -2,244 Descending Chicago Center
Tue 07:40:27 AM 41.4372 -86.6067 287° West 433 498 19,900 -2,226 Descending Chicago Center
Tue 07:41:29 AM 41.4719 -86.7600 287° West 418 481 17,600 -2,439 Descending Chicago Center
Tue 07:42:30 AM 41.5103 -86.9289 287° West 401 461 14,900 -2,244 Descending Chicago Center
Tue 07:43:32 AM 41.5411 -87.0650 287° West 390 449 13,000 -2,136 Descending Chicago Center
Tue 07:44:28 AM 41.5667 -87.1833 286° West 365 420 10,700 -1,023 Descending Chicago TRACON
Tue 07:46:28 AM 41.6833 -87.4000 306° West 346 398 10,000 -220 Descending Chicago TRACON
Tue 07:47:39 AM 41.7386 -87.4975 307° West 344 396 10,000 -455 Level Chicago Center
Tue 07:48:40 AM 41.8000 -87.6008 309° West 302 348 9,000 -1,255 Descending Chicago Center
Tue 07:49:29 AM 41.8000 -87.6833 270° West 290 334 7,700 -1,101 Descending Chicago TRACON
Tue 07:50:29 AM 41.8167 -87.7833 283° West 283 326 7,000 -421 Descending Chicago TRACON
Tue 07:51:23 AM 41.8167 -87.8833 270° West 256 295 6,900 -316 Descending Chicago TRACON
Tue 07:51:45 AM 41.8175 -87.9003 274° West 256 295 6,600 -1,429 Descending Chicago Center
Tue 07:52:47 AM 41.8011 -87.9833 255° West 240 276 4,900 -1,645 Descending Chicago Center

Login

Don't have an account? Register now (free) for customized features, flight alerts, and more!